createdAt,value
2023-03-21T00:01:56.672Z,99574.03
2023-03-21T00:04:25.484Z,99569.75
2023-03-21T00:06:52.641Z,99567.31
2023-03-21T00:09:19.929Z,99571.19
2023-03-21T00:11:46.786Z,99562.88
2023-03-21T00:14:15.959Z,99568.44
2023-03-21T00:16:45.943Z,99566.72
2023-03-21T00:39:11.885Z,99536.75
2023-03-21T00:41:42.907Z,99542.63
2023-03-21T00:44:13.810Z,99526.59
2023-03-21T00:46:47.308Z,99528.75
2023-03-21T00:49:21.534Z,99528.59
2023-03-21T00:51:51.196Z,99532.59
2023-03-21T00:54:18.231Z,99526.13
2023-03-21T00:56:45.102Z,99534.28
2023-03-21T00:59:11.833Z,99527.50
2023-03-21T01:01:38.689Z,99522.88
2023-03-21T01:04:07.617Z,99528.75
2023-03-21T01:06:40.310Z,99523.66
2023-03-21T01:09:11.190Z,99520.88
2023-03-21T01:11:37.980Z,99521.31
2023-03-21T01:14:20.972Z,99518.25
2023-03-21T01:16:49.855Z,99517.03
2023-03-21T01:19:25.550Z,99514.69
2023-03-21T01:21:56.701Z,99515.75
2023-03-21T01:24:23.508Z,99515.31
2023-03-21T01:26:50.181Z,99515.59
2023-03-21T01:29:16.966Z,99517.88
2023-03-21T01:31:43.673Z,99516.16
2023-03-21T01:34:10.425Z,99520.19
2023-03-21T01:36:37.218Z,99512.78
2023-03-21T01:39:06.155Z,99514.63
2023-03-21T01:41:42.977Z,99512.13
2023-03-21T01:44:15.570Z,99517.66
2023-03-21T01:47:11.620Z,99515.38
2023-03-21T01:49:39.074Z,99507.03
2023-03-21T01:52:13.073Z,99507.03
2023-03-21T01:54:41.631Z,99508.72
2023-03-21T01:57:12.524Z,99509.97
2023-03-21T01:59:50.711Z,99509.34
2023-03-21T02:02:29.011Z,99496.31
2023-03-21T02:04:58.125Z,99507.09
2023-03-21T02:07:29.212Z,99505.28
2023-03-21T02:09:56.186Z,99499.88
2023-03-21T02:12:23.253Z,99507.31
2023-03-21T02:14:50.329Z,99502.53
2023-03-21T02:17:38.782Z,99503.78
2023-03-21T02:20:27.052Z,99497.44
2023-03-21T02:23:18.266Z,99496.53
2023-03-21T02:25:56.811Z,99498.25
2023-03-21T02:28:31.732Z,99500.72
2023-03-21T02:31:12.149Z,99502.22
2023-03-21T02:33:57.670Z,99502.84
2023-03-21T02:36:28.740Z,99498.56
2023-03-21T02:38:56.770Z,99500.25
2023-03-21T02:41:47.971Z,99505.63
2023-03-21T02:44:25.332Z,99505.94
2023-03-21T02:47:10.868Z,99505.50
2023-03-21T02:49:45.356Z,99505.47
2023-03-21T02:52:28.297Z,99497.19
2023-03-21T02:55:00.009Z,99493.63
2023-03-21T02:57:33.802Z,99492.38
2023-03-21T03:00:16.631Z,99502.66
2023-03-21T03:02:44.243Z,99492.03
2023-03-21T03:05:21.543Z,99490.47
2023-03-21T03:08:18.729Z,99501.72
2023-03-21T03:10:54.515Z,99505.59
2023-03-21T03:13:43.020Z,99497.75
2023-03-21T03:16:13.539Z,99489.09
2023-03-21T03:18:53.180Z,99503.44
2023-03-21T03:21:39.964Z,99506.34
2023-03-21T03:24:29.874Z,99499.09
2023-03-21T03:27:05.275Z,99510.22
2023-03-21T03:29:34.140Z,99505.41
2023-03-21T03:32:05.485Z,99507.09
2023-03-21T03:34:40.728Z,99501.84
2023-03-21T03:37:10.763Z,99505.53
2023-03-21T03:39:46.456Z,99495.97
2023-03-21T03:42:28.389Z,99495.53
2023-03-21T03:44:55.972Z,99498.44
2023-03-21T03:47:50.794Z,99501.06
2023-03-21T03:50:36.571Z,99500.47
2023-03-21T03:53:18.965Z,99507.25
2023-03-21T03:55:46.681Z,99496.31
2023-03-21T03:58:22.868Z,99502.47
2023-03-21T04:00:52.570Z,99490.88
2023-03-21T04:03:19.509Z,99498.94
2023-03-21T04:05:46.693Z,99503.19
2023-03-21T04:08:14.353Z,99506.59
2023-03-21T04:10:42.458Z,99505.06
2023-03-21T04:13:09.258Z,99504.91
2023-03-21T04:15:36.206Z,99506.59
2023-03-21T04:18:03.413Z,99511.06
2023-03-21T04:20:43.381Z,99503.19
2023-03-21T04:23:11.252Z,99504.75
2023-03-21T04:25:44.633Z,99508.00
2023-03-21T04:28:17.527Z,99502.75
2023-03-21T04:30:58.940Z,99503.84
2023-03-21T04:33:27.922Z,99499.06
2023-03-21T04:35:56.338Z,99498.16
2023-03-21T04:38:23.768Z,99496.75
2023-03-21T04:40:50.602Z,99497.53
2023-03-21T04:43:17.322Z,99503.38
2023-03-21T04:45:44.454Z,99502.75
2023-03-21T04:48:11.221Z,99503.84
2023-03-21T04:50:38.258Z,99508.78
2023-03-21T04:53:05.306Z,99509.22
2023-03-21T04:55:32.475Z,99500.59
2023-03-21T04:57:59.704Z,99508.44
2023-03-21T05:00:27.170Z,99506.75
2023-03-21T05:02:53.854Z,99518.13
2023-03-21T05:05:20.642Z,99513.81
2023-03-21T05:07:47.431Z,99510.41
2023-03-21T05:10:14.274Z,99506.56
2023-03-21T05:12:41.396Z,99510.22
2023-03-21T05:15:08.909Z,99506.00
2023-03-21T05:17:35.658Z,99512.59
2023-03-21T05:20:02.476Z,99507.97
2023-03-21T05:22:29.325Z,99513.91
2023-03-21T05:24:56.083Z,99522.09
2023-03-21T05:27:35.576Z,99523.13
2023-03-21T05:30:08.630Z,99524.78
2023-03-21T05:32:35.354Z,99523.63
2023-03-21T05:35:02.290Z,99512.50
2023-03-21T05:37:29.179Z,99518.91
2023-03-21T05:39:55.982Z,99528.06
2023-03-21T05:42:22.875Z,99529.28
2023-03-21T05:44:49.622Z,99525.63
2023-03-21T05:47:19.159Z,99521.81
2023-03-21T05:49:46.054Z,99529.44
2023-03-21T05:52:12.932Z,99527.94
2023-03-21T05:54:39.718Z,99530.72
2023-03-21T05:57:06.675Z,99526.72
2023-03-21T05:59:33.721Z,99528.63
2023-03-21T06:02:00.766Z,99536.97
2023-03-21T06:04:27.826Z,99534.25
2023-03-21T06:06:54.863Z,99544.03
2023-03-21T06:09:22.606Z,99545.13
2023-03-21T06:11:51.350Z,99543.56
2023-03-21T06:14:18.587Z,99557.03
2023-03-21T06:16:45.394Z,99549.81
2023-03-21T06:19:12.388Z,99549.13
2023-03-21T06:21:39.192Z,99547.69
2023-03-21T06:24:06.304Z,99547.84
2023-03-21T06:26:32.991Z,99547.69
2023-03-21T06:28:59.701Z,99549.56
2023-03-21T06:31:26.760Z,99552.09
2023-03-21T06:33:53.598Z,99548.78
2023-03-21T06:36:20.609Z,99544.81
2023-03-21T06:38:48.640Z,99553.38
2023-03-21T06:41:16.879Z,99549.66
2023-03-21T06:43:44.203Z,99551.28
2023-03-21T06:46:11.415Z,99568.66
2023-03-21T06:48:44.286Z,99566.63
2023-03-21T06:51:12.785Z,99572.44
2023-03-21T06:53:41.446Z,99562.94
2023-03-21T06:56:11.866Z,99569.34
2023-03-21T06:58:38.708Z,99577.97
2023-03-21T07:01:05.988Z,99575.09
2023-03-21T07:03:34.126Z,99578.72
2023-03-21T07:06:07.086Z,99579.13
2023-03-21T07:08:33.995Z,99575.41
2023-03-21T07:11:01.966Z,99577.59
2023-03-21T07:13:28.687Z,99585.84
2023-03-21T07:15:55.644Z,99590.31
2023-03-21T07:18:22.451Z,99582.25
2023-03-21T07:20:51.111Z,99580.81
2023-03-21T07:23:19.478Z,99576.72
2023-03-21T07:25:48.431Z,99580.03
2023-03-21T07:28:16.304Z,99578.03
2023-03-21T07:30:44.129Z,99575.41
2023-03-21T07:33:11.522Z,99571.38
2023-03-21T07:35:38.768Z,99572.88
2023-03-21T07:38:05.925Z,99577.50
2023-03-21T07:40:32.808Z,99568.75
2023-03-21T07:42:59.581Z,99577.53
2023-03-21T07:45:27.393Z,99575.53
2023-03-21T07:47:54.526Z,99577.94
2023-03-21T07:50:21.629Z,99576.72
2023-03-21T07:52:48.702Z,99573.09
2023-03-21T07:55:17.306Z,99575.97
2023-03-21T07:57:44.133Z,99570.34
2023-03-21T08:00:12.709Z,99574.00
2023-03-21T08:02:40.195Z,99582.03
2023-03-21T08:05:07.247Z,99574.69
2023-03-21T08:07:33.999Z,99576.31
2023-03-21T08:10:01.297Z,99584.53
2023-03-21T08:12:29.017Z,99573.66
2023-03-21T08:14:55.933Z,99576.03
2023-03-21T08:17:22.707Z,99579.28
2023-03-21T08:19:49.506Z,99572.88
2023-03-21T08:22:16.331Z,99572.88
2023-03-21T08:24:43.154Z,99573.81
2023-03-21T08:27:09.902Z,99574.44
2023-03-21T08:29:40.516Z,99584.53
2023-03-21T08:32:07.331Z,99593.56
2023-03-21T08:34:34.017Z,99584.81
2023-03-21T08:37:01.362Z,99590.13
2023-03-21T08:39:28.505Z,99597.50
2023-03-21T08:41:55.370Z,99602.97
2023-03-21T08:44:22.183Z,99590.44
2023-03-21T08:46:48.943Z,99592.91
2023-03-21T08:49:15.658Z,99596.38
2023-03-21T08:51:45.778Z,99581.88
2023-03-21T08:54:22.632Z,99591.22
2023-03-21T08:56:49.512Z,99587.53
2023-03-21T08:59:17.562Z,99592.53
2023-03-21T09:01:45.134Z,99597.63
2023-03-21T09:04:18.920Z,99584.16
2023-03-21T09:06:51.094Z,99594.19
2023-03-21T09:09:19.842Z,99596.66
2023-03-21T09:11:47.355Z,99590.22
2023-03-21T09:14:14.140Z,99592.66
2023-03-21T09:16:41.268Z,99594.97
2023-03-21T09:19:08.708Z,99593.56
2023-03-21T09:21:36.773Z,99595.50
2023-03-21T09:24:06.583Z,99597.34
2023-03-21T09:26:33.692Z,99604.91
2023-03-21T09:29:01.061Z,99607.50
2023-03-21T09:31:28.663Z,99600.66
2023-03-21T09:33:58.019Z,99601.94
2023-03-21T09:36:27.228Z,99602.03
2023-03-21T09:38:54.785Z,99602.03
2023-03-21T09:41:54.135Z,99596.09
2023-03-21T09:45:01.746Z,99591.53
2023-03-21T09:47:34.761Z,99583.41
2023-03-21T09:50:14.433Z,99592.56
2023-03-21T09:52:50.689Z,99583.03
2023-03-21T09:55:23.906Z,99583.63
2023-03-21T09:58:16.249Z,99582.75
2023-03-21T10:00:46.505Z,99585.25
2023-03-21T10:03:26.283Z,99582.38
2023-03-21T10:05:58.877Z,99579.22
2023-03-21T10:08:30.789Z,99571.97
2023-03-21T10:11:01.736Z,99573.94
2023-03-21T10:13:36.030Z,99571.22
2023-03-21T10:16:30.620Z,99571.78
2023-03-21T10:18:59.643Z,99569.69
2023-03-21T10:21:51.734Z,99573.50
2023-03-21T10:24:20.695Z,99573.47
2023-03-21T10:26:48.461Z,99574.09
2023-03-21T10:29:16.787Z,99565.75
2023-03-21T10:31:45.248Z,99568.03
2023-03-21T10:34:36.039Z,99565.41
2023-03-21T10:37:04.453Z,99553.38
2023-03-21T10:39:39.292Z,99551.63
2023-03-21T10:42:06.750Z,99559.44
2023-03-21T10:44:35.146Z,99551.13
2023-03-21T10:47:06.416Z,99552.88
2023-03-21T10:49:40.754Z,99557.75
2023-03-21T10:52:22.495Z,99557.00
2023-03-21T10:54:49.669Z,99551.78
2023-03-21T10:57:22.543Z,99551.25
2023-03-21T10:59:57.997Z,99559.59
2023-03-21T11:02:30.396Z,99561.13
2023-03-21T11:04:58.380Z,99550.84
2023-03-21T11:07:30.977Z,99546.66
2023-03-21T11:09:59.942Z,99550.91
2023-03-21T11:12:38.560Z,99540.94
2023-03-21T11:15:40.187Z,99533.19
2023-03-21T11:18:22.036Z,99535.25
2023-03-21T11:20:51.904Z,99529.25
2023-03-21T11:23:20.718Z,99513.63
2023-03-21T11:25:50.131Z,99522.66
2023-03-21T11:28:22.980Z,99518.03
2023-03-21T11:30:59.116Z,99522.78
2023-03-21T11:33:28.822Z,99514.66
2023-03-21T11:36:04.080Z,99512.28
2023-03-21T11:38:38.208Z,99514.03
2023-03-21T11:41:06.896Z,99507.34
2023-03-21T11:43:39.710Z,99503.59
2023-03-21T11:46:13.785Z,99504.41
2023-03-21T11:48:45.721Z,99497.06
2023-03-21T11:51:38.249Z,99501.97
2023-03-21T11:54:20.280Z,99495.59
2023-03-21T11:56:49.472Z,99503.13
2023-03-21T11:59:16.623Z,99493.31
2023-03-21T12:01:43.837Z,99501.28
2023-03-21T12:05:11.211Z,99492.22
2023-03-21T12:07:58.179Z,99487.81
2023-03-21T12:10:37.650Z,99484.31
2023-03-21T12:13:19.799Z,99489.38
2023-03-21T12:16:09.264Z,99490.94
2023-03-21T12:18:49.914Z,99486.56
2023-03-21T12:21:31.714Z,99472.56
2023-03-21T12:24:01.201Z,99470.03
2023-03-21T12:26:38.868Z,99469.28
2023-03-21T12:29:09.855Z,99469.47
2023-03-21T12:31:44.295Z,99460.25
2023-03-21T12:34:15.246Z,99459.16
2023-03-21T12:36:51.433Z,99453.63
2023-03-21T12:39:18.361Z,99441.72
2023-03-21T12:41:54.660Z,99450.63
2023-03-21T12:44:22.790Z,99448.72
2023-03-21T12:47:09.462Z,99442.66
2023-03-21T12:49:38.886Z,99431.81
2023-03-21T12:52:13.226Z,99433.72
2023-03-21T12:54:55.625Z,99429.81
2023-03-21T12:57:56.437Z,99419.81
2023-03-21T13:00:27.776Z,99431.94
2023-03-21T13:02:59.018Z,99429.81
2023-03-21T13:05:28.858Z,99432.72
2023-03-21T13:08:03.750Z,99419.97
2023-03-21T13:10:30.696Z,99416.03
2023-03-21T13:13:34.223Z,99416.88
2023-03-21T13:16:03.587Z,99407.88
2023-03-21T13:18:56.594Z,99411.81
2023-03-21T13:21:43.917Z,99411.47
2023-03-21T13:24:33.110Z,99408.59
2023-03-21T13:27:20.071Z,99400.75
2023-03-21T13:30:19.126Z,99401.31
2023-03-21T13:32:49.307Z,99398.00
2023-03-21T13:35:18.961Z,99398.56
2023-03-21T13:38:01.873Z,99402.50
2023-03-21T13:40:48.861Z,99406.44
2023-03-21T13:43:40.204Z,99411.25
2023-03-21T13:46:15.968Z,99419.88
2023-03-21T13:49:01.870Z,99418.00
2023-03-21T13:51:38.575Z,99406.81
2023-03-21T13:54:08.679Z,99405.59
2023-03-21T13:56:47.497Z,99398.75
2023-03-21T13:59:18.807Z,99409.94
2023-03-21T14:01:58.810Z,99398.41
2023-03-21T14:04:41.923Z,99399.38
2023-03-21T14:07:26.480Z,99387.13
2023-03-21T14:09:55.839Z,99391.50
2023-03-21T14:12:24.559Z,99388.78
2023-03-21T14:14:55.204Z,99393.31
2023-03-21T14:17:26.044Z,99381.75
2023-03-21T14:20:14.463Z,99380.22
2023-03-21T14:22:41.715Z,99372.69
2023-03-21T14:25:13.500Z,99372.59
2023-03-21T14:27:43.680Z,99372.00
2023-03-21T14:30:22.011Z,99364.00
2023-03-21T14:32:48.838Z,99365.41
2023-03-21T14:35:15.611Z,99341.25
2023-03-21T14:37:44.733Z,99345.81
2023-03-21T14:40:26.580Z,99343.59
2023-03-21T14:42:54.419Z,99344.91
2023-03-21T14:45:28.731Z,99346.63
2023-03-21T14:48:07.663Z,99344.66
2023-03-21T14:50:48.291Z,99345.22
2023-03-21T14:53:25.390Z,99351.63
2023-03-21T14:56:04.326Z,99357.81
2023-03-21T14:58:38.416Z,99348.38
2023-03-21T15:01:14.655Z,99349.88
2023-03-21T15:03:44.675Z,99350.31
2023-03-21T15:06:13.588Z,99346.69
2023-03-21T15:08:40.855Z,99347.31
2023-03-21T15:11:11.618Z,99339.75
2023-03-21T15:13:46.190Z,99351.09
2023-03-21T15:16:14.967Z,99354.22
2023-03-21T15:18:43.016Z,99351.56
2023-03-21T15:21:13.383Z,99348.31
2023-03-21T15:23:45.242Z,99344.34
2023-03-21T15:26:16.930Z,99343.81
2023-03-21T15:28:46.619Z,99337.53
2023-03-21T15:31:21.658Z,99334.34
2023-03-21T15:33:49.248Z,99334.19
2023-03-21T15:36:22.378Z,99329.63
2023-03-21T15:38:49.896Z,99322.69
2023-03-21T15:41:19.668Z,99316.97
2023-03-21T15:43:55.031Z,99316.69
2023-03-21T15:46:34.148Z,99310.09
2023-03-21T15:49:31.179Z,99305.03
2023-03-21T15:52:09.943Z,99305.88
2023-03-21T15:54:50.229Z,99294.03
2023-03-21T15:57:22.636Z,99299.94
2023-03-21T15:59:49.623Z,99303.91
2023-03-21T16:02:19.315Z,99299.81
2023-03-21T16:05:18.059Z,99304.03
2023-03-21T16:07:46.169Z,99298.59
2023-03-21T16:10:39.143Z,99295.84
2023-03-21T16:13:06.684Z,99300.56
2023-03-21T16:15:33.461Z,99296.09
2023-03-21T16:18:01.839Z,99303.44
2023-03-21T16:20:50.503Z,99308.84
2023-03-21T16:23:17.385Z,99306.94
2023-03-21T16:25:44.399Z,99312.25
2023-03-21T16:28:17.541Z,99312.97
2023-03-21T16:30:44.966Z,99314.44
2023-03-21T16:33:12.515Z,99306.75
2023-03-21T16:35:39.826Z,99308.94
2023-03-21T16:38:06.606Z,99308.03
2023-03-21T16:40:39.572Z,99315.50
2023-03-21T16:43:07.337Z,99316.16
2023-03-21T16:45:34.196Z,99326.19
2023-03-21T16:48:02.110Z,99321.16
2023-03-21T16:50:29.550Z,99324.09
2023-03-21T16:52:57.088Z,99330.00
2023-03-21T16:55:24.701Z,99334.00
2023-03-21T16:57:52.488Z,99337.31
2023-03-21T17:00:26.076Z,99342.44
2023-03-21T17:02:54.922Z,99336.97
2023-03-21T17:05:26.218Z,99331.50
2023-03-21T17:07:54.508Z,99333.22
2023-03-21T17:10:24.039Z,99336.81
2023-03-21T17:12:50.816Z,99342.31
2023-03-21T17:15:18.057Z,99345.91
2023-03-21T17:17:45.771Z,99344.19
2023-03-21T17:20:28.176Z,99351.88
2023-03-21T17:22:54.960Z,99349.34
2023-03-21T17:25:21.885Z,99351.78
2023-03-21T17:27:49.271Z,99348.84
2023-03-21T17:30:31.644Z,99347.75
2023-03-21T17:32:58.903Z,99347.06
2023-03-21T17:35:26.650Z,99347.91
2023-03-21T17:37:54.126Z,99354.84
2023-03-21T17:40:23.752Z,99349.00
2023-03-21T17:42:51.647Z,99346.16
2023-03-21T17:45:18.689Z,99351.22
2023-03-21T17:47:45.841Z,99353.97
2023-03-21T17:50:19.096Z,99349.19
2023-03-21T17:52:46.925Z,99357.31
2023-03-21T17:55:17.834Z,99354.06
2023-03-21T17:57:44.751Z,99354.56
2023-03-21T18:00:16.773Z,99353.28
2023-03-21T18:02:43.576Z,99362.91
2023-03-21T18:05:10.762Z,99358.97
2023-03-21T18:08:08.140Z,99362.13
2023-03-21T18:10:26.552Z,99370.94
2023-03-21T18:12:56.040Z,99368.47
2023-03-21T18:15:24.573Z,99359.22
2023-03-21T18:17:51.515Z,99372.63
2023-03-21T18:20:21.102Z,99377.13
2023-03-21T18:22:48.085Z,99370.22
2023-03-21T18:25:15.937Z,99367.94
2023-03-21T18:28:06.891Z,99374.63
2023-03-21T18:31:00.388Z,99378.78
2023-03-21T18:33:16.544Z,99378.38
2023-03-21T18:35:43.562Z,99376.75
2023-03-21T18:38:10.524Z,99386.59
2023-03-21T18:40:37.566Z,99380.16
2023-03-21T18:45:52.012Z,99376.66
2023-03-21T18:48:18.784Z,99387.38
2023-03-21T18:50:46.035Z,99385.84
2023-03-21T18:53:12.693Z,99386.06
2023-03-21T18:55:45.946Z,99382.78
2023-03-21T18:58:13.505Z,99384.28
2023-03-21T19:00:40.897Z,99383.53
2023-03-21T19:03:19.289Z,99390.44
2023-03-21T19:05:58.579Z,99394.59
2023-03-21T19:08:25.799Z,99389.78
2023-03-21T19:10:53.097Z,99395.03
2023-03-21T19:13:19.880Z,99379.69
2023-03-21T19:15:49.463Z,99394.50
2023-03-21T19:21:05.590Z,99396.59
2023-03-21T19:23:56.360Z,99398.59
2023-03-21T19:26:19.302Z,99397.03
2023-03-21T19:28:46.081Z,99395.09
2023-03-21T19:31:12.797Z,99402.53
2023-03-21T19:33:39.637Z,99402.91
2023-03-21T19:36:18.080Z,99403.13
2023-03-21T19:38:48.521Z,99402.16
2023-03-21T19:41:15.541Z,99408.75
2023-03-21T19:43:53.214Z,99404.38
2023-03-21T19:46:24.661Z,99404.94
2023-03-21T19:48:51.716Z,99408.56
2023-03-21T19:51:28.366Z,99406.94
2023-03-21T19:53:56.427Z,99409.03
2023-03-21T19:56:26.751Z,99401.34
2023-03-21T19:58:57.033Z,99400.47
2023-03-21T20:01:24.800Z,99406.41
2023-03-21T20:03:52.414Z,99408.59
2023-03-21T20:06:19.632Z,99404.66
2023-03-21T20:09:34.059Z,99407.19
2023-03-21T20:11:33.943Z,99408.81
2023-03-21T20:14:03.061Z,99420.63
2023-03-21T20:16:35.835Z,99416.22
2023-03-21T20:19:08.729Z,99426.09
2023-03-21T20:21:46.571Z,99422.25
2023-03-21T20:24:16.450Z,99425.34
2023-03-21T20:26:45.015Z,99425.66
2023-03-21T20:30:03.802Z,99427.50
2023-03-21T20:31:58.934Z,99419.97
2023-03-21T20:34:25.858Z,99426.63
2023-03-21T20:36:53.364Z,99433.00
2023-03-21T20:39:20.170Z,99430.88
2023-03-21T20:41:46.884Z,99438.34
2023-03-21T20:44:44.779Z,99433.75
2023-03-21T20:47:00.478Z,99432.84
2023-03-21T20:49:28.416Z,99437.22
2023-03-21T20:54:43.570Z,99426.22
2023-03-21T20:57:10.762Z,99435.47
2023-03-21T20:59:37.582Z,99433.34
2023-03-21T21:02:05.301Z,99443.28
2023-03-21T21:04:52.791Z,99447.13
2023-03-21T21:07:21.368Z,99450.41
2023-03-21T21:09:48.923Z,99446.78
2023-03-21T21:12:19.181Z,99456.25
2023-03-21T21:14:47.828Z,99448.91
2023-03-21T21:17:31.161Z,99453.69
2023-03-21T21:20:02.460Z,99461.16
2023-03-21T21:22:29.398Z,99458.59
2023-03-21T21:24:56.281Z,99465.69
2023-03-21T21:27:23.050Z,99455.72
2023-03-21T21:29:50.196Z,99464.84
2023-03-21T21:32:18.688Z,99462.28
2023-03-21T21:34:45.635Z,99466.00
2023-03-21T21:37:12.460Z,99454.63
2023-03-21T21:39:40.233Z,99456.00
2023-03-21T21:42:07.037Z,99452.81
2023-03-21T21:44:33.823Z,99462.19
2023-03-21T21:47:04.145Z,99456.69
2023-03-21T21:49:31.218Z,99458.53
2023-03-21T21:51:59.822Z,99463.31
2023-03-21T21:54:30.070Z,99461.44
2023-03-21T21:56:57.997Z,99463.03
2023-03-21T21:59:24.796Z,99460.09
2023-03-21T22:01:51.883Z,99465.03
2023-03-21T22:04:24.741Z,99466.56
2023-03-21T22:06:51.950Z,99466.56
2023-03-21T22:09:18.970Z,99467.19
2023-03-21T22:11:45.889Z,99466.28
2023-03-21T22:14:12.875Z,99473.53
2023-03-21T22:16:39.727Z,99475.06
2023-03-21T22:19:06.571Z,99467.00
2023-03-21T22:21:33.322Z,99477.94
2023-03-21T22:24:00.018Z,99478.41
2023-03-21T22:26:26.846Z,99480.09
2023-03-21T22:28:53.546Z,99487.06
2023-03-21T22:31:20.682Z,99491.50
2023-03-21T22:33:48.671Z,99496.47
2023-03-21T22:36:15.419Z,99492.25
2023-03-21T22:38:43.901Z,99505.06
2023-03-21T22:41:10.921Z,99506.63
2023-03-21T22:43:37.911Z,99495.66
2023-03-21T22:46:05.454Z,99509.25
2023-03-21T22:48:32.649Z,99508.13
2023-03-21T22:50:59.818Z,99509.44
2023-03-21T22:53:26.606Z,99501.28
2023-03-21T22:55:53.324Z,99497.50
2023-03-21T22:58:20.307Z,99498.31
2023-03-21T23:00:47.459Z,99501.94
2023-03-21T23:03:16.640Z,99498.28
2023-03-21T23:05:44.209Z,99502.31
2023-03-21T23:08:11.305Z,99494.75
2023-03-21T23:10:39.631Z,99482.16
2023-03-21T23:13:06.660Z,99495.84
2023-03-21T23:15:33.390Z,99489.09
2023-03-21T23:18:00.145Z,99492.66
2023-03-21T23:20:26.994Z,99489.44
2023-03-21T23:22:53.768Z,99494.53
2023-03-21T23:25:20.651Z,99500.88
2023-03-21T23:27:47.953Z,99492.28
2023-03-21T23:30:15.048Z,99493.06
2023-03-21T23:32:57.458Z,99491.88
2023-03-21T23:35:24.430Z,99481.25
2023-03-21T23:37:52.768Z,99482.81
2023-03-21T23:40:20.820Z,99485.09
2023-03-21T23:42:47.551Z,99502.38
2023-03-21T23:45:14.352Z,99487.16
2023-03-21T23:47:41.122Z,99498.88
2023-03-21T23:50:09.734Z,99500.09
2023-03-21T23:52:37.459Z,99500.72
2023-03-21T23:55:07.937Z,99495.34
2023-03-21T23:57:34.789Z,99497.47
